Time;durP1;ratioP1;P1;durP2;ratioP2;P2;SDS_P1;SDS_P2;PMS_P1;PMS_P2;Temp;Humidity;BMP_temperature;BMP_pressure;BME280_temperature;BME280_humidity;BME280_pressure;Samples;Min_cycle;Max_cycle;Signal;HPM_P1;HPM_P2
2022/04/09 00:02:00;;;;;;;28.73;14.57;;;9.40;99.90;;;;;;4159357;28;20084;-55
2022/04/09 00:04:02;;;;;;;27.73;14.97;;;9.30;99.90;;;;;;4160322;28;20057;-62
2022/04/09 00:06:03;;;;;;;29.67;15.57;;;9.30;99.90;;;;;;4158941;28;20107;-58
2022/04/09 00:08:05;;;;;;;29.13;16.33;;;9.20;99.90;;;;;;4160155;28;20494;-65
2022/04/09 00:10:08;;;;;;;27.83;15.50;;;9.20;99.90;;;;;;4158628;28;20113;-59
2022/04/09 00:12:11;;;;;;;31.67;17.47;;;9.20;99.90;;;;;;4160325;28;20095;-63
2022/04/09 00:14:12;;;;;;;35.33;16.90;;;9.10;99.90;;;;;;4159153;28;20099;-55
2022/04/09 00:16:13;;;;;;;34.07;16.63;;;9.10;99.90;;;;;;4158612;28;20041;-58
2022/04/09 00:18:15;;;;;;;36.30;16.40;;;9.20;99.90;;;;;;4144487;28;20053;-54
2022/04/09 00:20:18;;;;;;;27.73;16.00;;;9.20;99.90;;;;;;4143914;28;20042;-51
2022/04/09 00:22:20;;;;;;;26.57;15.67;;;9.20;99.90;;;;;;4157376;28;20083;-63
2022/04/09 00:24:21;;;;;;;29.20;15.43;;;9.30;99.90;;;;;;4160321;28;20084;-65
2022/04/09 00:26:22;;;;;;;29.10;16.10;;;9.30;99.90;;;;;;4159499;28;20111;-53
2022/04/09 00:28:23;;;;;;;27.47;16.37;;;9.40;99.90;;;;;;4159573;28;20038;-59
2022/04/09 00:30:24;;;;;;;28.70;14.97;;;9.40;99.90;;;;;;4159403;28;20091;-55
2022/04/09 00:32:25;;;;;;;26.27;15.63;;;9.50;99.90;;;;;;4158986;28;20033;-53
2022/04/09 00:34:26;;;;;;;31.23;15.63;;;9.50;99.90;;;;;;4159888;28;20025;-60
2022/04/09 00:36:28;;;;;;;25.03;14.90;;;9.60;99.90;;;;;;4149976;28;20532;-57
2022/04/09 00:38:29;;;;;;;25.90;14.33;;;9.50;99.90;;;;;;4143576;28;20100;-55
2022/04/09 00:40:30;;;;;;;27.13;14.43;;;9.50;99.90;;;;;;4146056;28;20850;-55
2022/04/09 00:42:31;;;;;;;26.23;14.40;;;9.50;99.90;;;;;;4159679;28;20087;-56
2022/04/09 00:44:33;;;;;;;32.93;15.73;;;9.60;99.90;;;;;;4157425;28;20100;-53
2022/04/09 00:46:34;;;;;;;23.00;13.57;;;9.50;99.90;;;;;;4160360;28;20029;-57
2022/04/09 00:48:36;;;;;;;27.37;15.70;;;9.60;99.90;;;;;;4158526;28;20021;-55
2022/04/09 00:50:38;;;;;;;23.87;14.13;;;9.60;99.90;;;;;;4159245;28;20053;-66
2022/04/09 00:52:50;;;;;;;26.37;13.97;;;9.60;99.90;;;;;;4158646;28;20057;-59
2022/04/09 00:54:52;;;;;;;20.90;12.80;;;9.60;99.90;;;;;;4158496;28;20038;-55
2022/04/09 00:56:55;;;;;;;24.67;13.93;;;9.60;99.90;;;;;;4158575;28;20056;-68
2022/04/09 00:58:56;;;;;;;22.03;13.70;;;9.60;99.90;;;;;;4158863;28;20080;-59
2022/04/09 01:00:58;;;;;;;26.10;14.40;;;9.50;99.90;;;;;;4146684;28;20038;-66
2022/04/09 01:02:59;;;;;;;25.50;14.10;;;9.50;99.90;;;;;;4142387;28;20058;-53
2022/04/09 01:05:01;;;;;;;22.97;13.27;;;9.40;99.90;;;;;;4142668;28;20386;-56
2022/04/09 01:07:03;;;;;;;24.33;13.70;;;9.40;99.90;;;;;;4142525;28;20026;-55
2022/04/09 01:09:06;;;;;;;21.07;13.73;;;9.30;99.90;;;;;;4143450;28;20119;-56
2022/04/09 01:11:08;;;;;;;24.87;14.13;;;9.30;99.90;;;;;;4141873;28;20077;-57
2022/04/09 01:13:09;;;;;;;29.77;14.53;;;9.30;99.90;;;;;;4142991;28;20038;-55
2022/04/09 01:15:11;;;;;;;24.10;13.87;;;9.30;99.90;;;;;;4147331;28;20041;-56
2022/04/09 01:17:12;;;;;;;27.37;14.73;;;9.30;99.90;;;;;;4159761;28;20056;-56
2022/04/09 01:19:13;;;;;;;27.20;14.40;;;9.30;99.90;;;;;;4156330;28;20830;-67
2022/04/09 01:21:14;;;;;;;24.20;14.00;;;9.30;99.90;;;;;;4157080;28;20473;-55
2022/04/09 01:23:15;;;;;;;30.13;15.67;;;9.30;99.90;;;;;;4158252;28;20049;-53
2022/04/09 01:25:16;;;;;;;24.27;13.93;;;9.30;99.90;;;;;;4159503;28;20037;-55
2022/04/09 01:27:17;;;;;;;24.17;13.43;;;9.30;99.90;;;;;;4158261;28;20021;-68
2022/04/09 01:29:19;;;;;;;23.27;13.83;;;9.30;99.90;;;;;;4158823;28;20112;-59
2022/04/09 01:31:21;;;;;;;27.30;12.60;;;9.30;99.90;;;;;;4158419;28;20045;-59
2022/04/09 01:33:22;;;;;;;22.47;13.13;;;9.40;99.90;;;;;;4158389;28;20034;-53
2022/04/09 01:35:23;;;;;;;23.47;12.93;;;9.40;99.90;;;;;;4156682;28;20030;-55
2022/04/09 01:37:25;;;;;;;26.93;13.43;;;9.40;99.90;;;;;;4141601;28;20029;-57
2022/04/09 01:39:26;;;;;;;27.53;14.67;;;9.40;99.90;;;;;;4148873;28;20379;-56
2022/04/09 01:41:27;;;;;;;26.77;14.50;;;9.50;99.90;;;;;;4157898;28;20076;-57
2022/04/09 01:43:28;;;;;;;21.70;13.13;;;9.50;99.90;;;;;;4148476;28;20034;-53
2022/04/09 01:45:29;;;;;;;25.67;13.87;;;9.50;99.90;;;;;;4141235;28;20084;-56
2022/04/09 01:47:30;;;;;;;24.43;13.40;;;9.50;99.90;;;;;;4142704;28;20108;-56
2022/04/09 01:49:33;;;;;;;26.07;14.63;;;9.60;99.90;;;;;;4140768;28;20073;-56
2022/04/09 01:51:34;;;;;;;22.30;13.57;;;9.60;99.90;;;;;;4142616;28;20504;-64
2022/04/09 01:53:38;;;;;;;23.77;14.03;;;9.60;99.90;;;;;;4139234;28;20042;-59
2022/04/09 01:55:40;;;;;;;23.30;14.37;;;9.60;99.90;;;;;;4143566;28;20038;-54
2022/04/09 01:57:41;;;;;;;30.10;16.50;;;9.60;99.90;;;;;;4138971;28;20379;-55
2022/04/09 01:59:45;;;;;;;24.40;14.77;;;9.60;99.90;;;;;;4157074;28;20037;-55
2022/04/09 02:01:48;;;;;;;31.07;14.80;;;9.60;99.90;;;;;;4141127;28;20108;-53
2022/04/09 02:03:49;;;;;;;24.27;13.47;;;9.60;99.90;;;;;;4141655;28;20073;-57
2022/04/09 02:05:52;;;;;;;20.17;12.83;;;9.60;99.90;;;;;;4141420;28;20045;-61
2022/04/09 02:07:53;;;;;;;26.07;13.50;;;9.60;99.90;;;;;;4142495;28;20029;-58
2022/04/09 02:09:55;;;;;;;23.40;13.33;;;9.60;99.90;;;;;;4141690;28;20092;-62
2022/04/09 02:11:56;;;;;;;24.03;12.87;;;9.60;99.90;;;;;;4140616;28;20379;-60
2022/04/09 02:13:57;;;;;;;22.30;12.80;;;9.50;99.90;;;;;;4141977;28;20038;-64
2022/04/09 02:15:58;;;;;;;26.70;13.33;;;9.60;99.90;;;;;;4141746;28;20034;-55
2022/04/09 02:17:59;;;;;;;26.13;13.37;;;9.50;99.90;;;;;;4142088;28;20034;-64
2022/04/09 02:20:05;;;;;;;24.67;13.47;;;9.50;99.90;;;;;;4139474;28;20092;-57
2022/04/09 02:22:07;;;;;;;25.27;13.63;;;9.50;99.90;;;;;;4141939;28;20560;-56
2022/04/09 02:24:09;;;;;;;29.83;13.43;;;9.50;99.90;;;;;;4140519;28;20042;-60
2022/04/09 02:26:10;;;;;;;21.53;12.10;;;9.50;99.90;;;;;;4142797;28;20478;-63
2022/04/09 02:28:11;;;;;;;20.60;11.83;;;9.40;99.90;;;;;;4140669;28;20030;-61
2022/04/09 02:30:13;;;;;;;20.07;12.53;;;9.40;99.90;;;;;;4141935;28;20029;-57
2022/04/09 02:32:14;;;;;;;22.60;11.73;;;9.40;99.90;;;;;;4140663;28;20111;-58
2022/04/09 02:34:15;;;;;;;22.83;13.10;;;9.40;99.90;;;;;;4142593;28;20030;-58
2022/04/09 02:36:16;;;;;;;19.77;11.83;;;9.40;99.90;;;;;;4141288;28;20030;-58
2022/04/09 02:38:18;;;;;;;19.17;11.63;;;9.40;99.90;;;;;;4140709;28;20037;-59
2022/04/09 02:40:20;;;;;;;25.50;13.80;;;9.40;99.90;;;;;;4141253;28;20030;-56
2022/04/09 02:42:21;;;;;;;22.80;12.33;;;9.40;99.90;;;;;;4140410;28;20088;-67
2022/04/09 02:44:23;;;;;;;25.20;13.20;;;9.30;99.90;;;;;;4141796;28;20476;-56
2022/04/09 02:46:25;;;;;;;23.37;13.13;;;9.30;99.90;;;;;;4140743;28;20052;-58
2022/04/09 02:48:26;;;;;;;21.87;13.07;;;9.20;99.90;;;;;;4139838;28;20045;-56
2022/04/09 02:50:27;;;;;;;22.43;13.00;;;9.30;99.90;;;;;;4140610;28;20021;-57
2022/04/09 02:52:35;;;;;;;19.97;12.70;;;9.20;99.90;;;;;;4142545;28;20080;-61
2022/04/09 02:54:37;;;;;;;20.90;11.73;;;9.20;99.90;;;;;;4140658;28;20037;-69
2022/04/09 02:56:38;;;;;;;25.53;12.63;;;9.20;99.90;;;;;;4141549;28;20445;-58
2022/04/09 02:58:39;;;;;;;21.43;12.90;;;9.20;99.90;;;;;;4140513;28;20037;-61
2022/04/09 03:00:40;;;;;;;23.43;12.47;;;9.20;99.90;;;;;;4139917;28;20034;-60
2022/04/09 03:02:42;;;;;;;22.93;12.77;;;9.20;99.90;;;;;;4140103;28;20030;-62
2022/04/09 03:04:43;;;;;;;26.33;12.17;;;9.20;99.90;;;;;;4142124;28;20486;-62
2022/04/09 03:06:45;;;;;;;21.57;11.97;;;9.20;99.90;;;;;;4140497;28;20025;-55
2022/04/09 03:08:46;;;;;;;20.37;12.70;;;9.20;99.90;;;;;;4141049;28;20053;-56
2022/04/09 03:10:47;;;;;;;21.60;12.43;;;9.20;99.90;;;;;;4140590;28;20544;-56
2022/04/09 03:12:48;;;;;;;28.07;13.10;;;9.30;99.90;;;;;;4152273;28;20087;-55
2022/04/09 03:14:49;;;;;;;22.57;12.57;;;9.30;99.90;;;;;;4156791;28;20088;-59
2022/04/09 03:16:50;;;;;;;24.10;12.67;;;9.30;99.90;;;;;;4156368;28;20860;-59
2022/04/09 03:18:52;;;;;;;26.60;13.47;;;9.30;99.90;;;;;;4157281;28;20033;-58
2022/04/09 03:20:53;;;;;;;19.33;12.30;;;9.30;99.90;;;;;;4156488;28;20041;-60
2022/04/09 03:22:54;;;;;;;22.43;12.23;;;9.30;99.90;;;;;;4157661;28;20037;-58
2022/04/09 03:24:59;;;;;;;21.40;11.57;;;9.30;99.90;;;;;;4156954;28;20091;-63
2022/04/09 03:27:00;;;;;;;22.83;13.10;;;9.40;99.90;;;;;;4149664;28;20100;-59
2022/04/09 03:29:02;;;;;;;22.57;12.87;;;9.40;99.90;;;;;;4140946;28;20440;-58
2022/04/09 03:31:03;;;;;;;22.67;12.77;;;9.40;99.90;;;;;;4142061;28;20506;-61
2022/04/09 03:33:05;;;;;;;21.73;12.90;;;9.40;99.90;;;;;;4156119;28;20033;-56
2022/04/09 03:35:07;;;;;;;29.00;13.57;;;9.40;99.90;;;;;;4157745;28;20428;-58
2022/04/09 03:37:09;;;;;;;24.63;13.87;;;9.40;99.90;;;;;;4156059;28;20021;-57
2022/04/09 03:39:10;;;;;;;25.53;14.93;;;9.40;99.90;;;;;;4156495;28;20846;-55
2022/04/09 03:41:12;;;;;;;26.03;14.40;;;9.50;99.90;;;;;;4156324;28;20044;-55
2022/04/09 03:43:13;;;;;;;24.80;14.10;;;9.50;99.90;;;;;;4156831;28;20037;-58
2022/04/09 03:45:14;;;;;;;24.77;13.10;;;9.50;99.90;;;;;;4156882;28;20522;-60
2022/04/09 03:47:15;;;;;;;25.00;13.67;;;9.50;99.90;;;;;;4143121;28;20038;-63
2022/04/09 03:49:16;;;;;;;23.53;13.40;;;9.50;99.90;;;;;;4140654;28;20088;-57
2022/04/09 03:51:17;;;;;;;24.70;13.63;;;9.50;99.90;;;;;;4146273;28;20038;-60
2022/04/09 03:53:21;;;;;;;21.20;13.43;;;9.60;99.90;;;;;;4157349;28;20087;-52
2022/04/09 03:55:22;;;;;;;22.23;13.10;;;9.60;99.90;;;;;;4156445;28;20099;-54
2022/04/09 03:57:24;;;;;;;21.00;12.30;;;9.60;99.90;;;;;;4156871;28;20044;-60
2022/04/09 03:59:25;;;;;;;20.00;11.57;;;9.60;99.90;;;;;;4155520;28;20037;-58
2022/04/09 04:01:27;;;;;;;20.10;12.63;;;9.70;99.90;;;;;;4145964;28;20576;-67
2022/04/09 04:03:28;;;;;;;23.50;13.00;;;9.70;99.90;;;;;;4138757;28;20045;-61
2022/04/09 04:05:29;;;;;;;27.43;14.07;;;9.80;99.90;;;;;;4141285;28;20085;-58
2022/04/09 04:07:31;;;;;;;26.67;14.33;;;9.80;99.90;;;;;;4139874;28;20046;-63
2022/04/09 04:09:32;;;;;;;26.43;12.90;;;9.80;99.90;;;;;;4141108;28;20544;-58
2022/04/09 04:11:34;;;;;;;21.80;13.17;;;9.80;99.90;;;;;;4152030;28;20099;-56
2022/04/09 04:13:38;;;;;;;29.07;13.60;;;9.80;99.90;;;;;;4156632;28;20083;-68
2022/04/09 04:15:40;;;;;;;23.57;12.93;;;9.80;99.90;;;;;;4156645;28;20068;-63
2022/04/09 04:17:43;;;;;;;24.10;14.20;;;9.80;99.90;;;;;;4156595;28;20029;-55
2022/04/09 04:19:44;;;;;;;21.70;12.60;;;9.90;99.90;;;;;;4157233;28;20063;-53
2022/04/09 04:21:45;;;;;;;24.07;12.90;;;9.90;99.90;;;;;;4158316;28;20055;-60
2022/04/09 04:23:46;;;;;;;25.10;12.80;;;9.90;99.90;;;;;;4159570;28;20057;-60
2022/04/09 04:25:47;;;;;;;28.73;13.73;;;10.00;99.90;;;;;;4157396;28;20033;-56
2022/04/09 04:27:49;;;;;;;22.13;12.10;;;10.10;99.90;;;;;;4159703;28;20080;-58
2022/04/09 04:29:50;;;;;;;21.23;12.43;;;10.10;99.90;;;;;;4156411;28;20539;-55
2022/04/09 04:31:51;;;;;;;29.53;11.80;;;10.20;99.90;;;;;;4143566;28;20122;-66
2022/04/09 04:33:52;;;;;;;24.53;12.07;;;10.30;99.90;;;;;;4142504;28;20129;-57
2022/04/09 04:35:53;;;;;;;30.00;15.40;;;10.40;99.90;;;;;;4143407;28;20034;-57
2022/04/09 04:37:54;;;;;;;32.03;15.77;;;10.50;99.90;;;;;;4140273;28;20100;-56
2022/04/09 04:39:55;;;;;;;30.70;16.43;;;10.90;99.90;;;;;;4143283;28;20033;-60
2022/04/09 04:41:57;;;;;;;24.00;14.63;;;11.30;99.90;;;;;;4142021;28;20115;-61
2022/04/09 04:43:58;;;;;;;32.43;15.73;;;11.70;99.90;;;;;;4142779;28;20066;-55
2022/04/09 04:45:59;;;;;;;34.17;15.67;;;12.00;99.90;;;;;;4141434;28;20042;-61
2022/04/09 04:48:00;;;;;;;30.13;14.80;;;11.90;99.90;;;;;;4142325;28;20460;-63
2022/04/09 04:50:05;;;;;;;31.33;13.93;;;11.70;99.90;;;;;;4143173;28;20026;-58
2022/04/09 04:52:06;;;;;;;31.07;14.77;;;11.50;99.90;;;;;;4142049;28;20053;-56
2022/04/09 04:54:07;;;;;;;27.03;14.03;;;11.40;99.90;;;;;;4142689;28;20104;-61
2022/04/09 04:56:08;;;;;;;27.23;14.23;;;11.30;99.90;;;;;;4142069;28;20034;-61
2022/04/09 04:58:10;;;;;;;32.43;15.20;;;11.30;99.90;;;;;;4142674;28;20161;-66
2022/04/09 05:00:12;;;;;;;24.77;14.23;;;11.30;99.90;;;;;;4147499;28;20136;-60
2022/04/09 05:02:13;;;;;;;24.77;14.33;;;11.30;99.90;;;;;;4139858;28;20034;-55
2022/04/09 05:04:15;;;;;;;26.67;14.03;;;11.30;99.90;;;;;;4139928;28;20041;-58
2022/04/09 05:06:16;;;;;;;24.50;13.43;;;11.30;99.90;;;;;;4149138;28;20087;-58
2022/04/09 05:08:17;;;;;;;24.73;12.07;;;11.30;99.90;;;;;;4140823;28;20516;-53
2022/04/09 05:10:20;;;;;;;27.03;15.43;;;11.30;99.90;;;;;;4142277;28;20034;-66
2022/04/09 05:12:22;;;;;;;30.23;15.73;;;11.30;99.90;;;;;;4140686;28;20882;-64
2022/04/09 05:14:23;;;;;;;24.93;16.17;;;11.30;99.90;;;;;;4141830;28;20116;-66
2022/04/09 05:16:24;;;;;;;30.83;14.53;;;11.30;99.90;;;;;;4141015;28;20034;-56
2022/04/09 05:18:25;;;;;;;26.53;15.03;;;11.20;99.90;;;;;;4141332;28;20026;-56
2022/04/09 05:20:27;;;;;;;25.33;14.63;;;11.00;99.90;;;;;;4145290;28;20091;-65
2022/04/09 05:22:29;;;;;;;30.10;14.87;;;10.80;99.90;;;;;;4143544;28;20741;-59
2022/04/09 05:24:30;;;;;;;29.67;15.33;;;10.70;99.90;;;;;;4141980;28;20103;-58
2022/04/09 05:26:31;;;;;;;28.93;15.40;;;10.50;99.90;;;;;;4140731;28;20099;-65
2022/04/09 05:28:33;;;;;;;20.17;12.60;;;10.40;99.90;;;;;;4141844;28;20084;-52
2022/04/09 05:30:34;;;;;;;27.87;14.30;;;10.40;99.90;;;;;;4140784;28;20037;-66
2022/04/09 05:32:39;;;;;;;29.80;14.47;;;10.30;99.90;;;;;;4140404;28;20556;-57
2022/04/09 05:34:40;;;;;;;27.20;14.43;;;10.20;99.90;;;;;;4140101;28;20046;-54
2022/04/09 05:36:43;;;;;;;24.70;13.87;;;10.20;99.90;;;;;;4142369;28;20045;-57
2022/04/09 05:38:44;;;;;;;26.87;13.57;;;10.20;99.90;;;;;;4142524;28;20050;-62
2022/04/09 05:40:45;;;;;;;24.43;12.97;;;10.10;99.90;;;;;;4146687;28;20438;-58
2022/04/09 05:42:46;;;;;;;23.27;12.33;;;10.10;99.90;;;;;;4147449;28;20087;-60
2022/04/09 05:44:47;;;;;;;21.90;12.13;;;10.10;99.90;;;;;;4146009;28;20639;-54
2022/04/09 05:46:48;;;;;;;20.87;12.50;;;10.20;99.90;;;;;;4147874;28;20983;-64
2022/04/09 05:48:49;;;;;;;23.37;11.17;;;10.10;99.90;;;;;;4141864;28;20086;-62
2022/04/09 05:50:51;;;;;;;19.67;10.17;;;10.10;99.90;;;;;;4140494;28;20477;-56
2022/04/09 05:52:53;;;;;;;21.13;11.07;;;10.10;99.90;;;;;;4141018;28;20076;-60
2022/04/09 05:54:54;;;;;;;16.37;9.83;;;10.10;99.90;;;;;;4141949;28;20030;-58
2022/04/09 05:56:55;;;;;;;14.60;10.00;;;10.20;99.90;;;;;;4144205;28;20045;-59
2022/04/09 05:58:57;;;;;;;16.57;9.53;;;10.30;99.90;;;;;;4148863;28;20145;-54
2022/04/09 06:01:00;;;;;;;20.30;9.60;;;10.30;99.90;;;;;;4138409;28;20050;-66
2022/04/09 06:03:03;;;;;;;19.33;10.10;;;10.40;99.90;;;;;;4141998;28;20088;-62
2022/04/09 06:05:04;;;;;;;17.50;10.47;;;10.40;99.90;;;;;;4152832;28;20075;-53
2022/04/09 06:07:06;;;;;;;19.43;10.50;;;10.40;99.90;;;;;;4158223;28;20544;-65
2022/04/09 06:09:07;;;;;;;18.77;10.87;;;10.40;99.90;;;;;;4155780;28;20543;-61
2022/04/09 06:11:08;;;;;;;36.63;15.97;;;10.30;99.90;;;;;;4158513;28;20523;-65
2022/04/09 06:13:12;;;;;;;20.50;11.53;;;10.40;99.90;;;;;;4156695;28;20045;-59
2022/04/09 06:15:14;;;;;;;20.40;11.30;;;10.50;99.90;;;;;;4157133;28;20665;-58
2022/04/09 06:17:16;;;;;;;28.33;14.67;;;10.50;99.90;;;;;;4156753;28;20021;-58
2022/04/09 06:19:17;;;;;;;25.77;13.33;;;10.40;99.90;;;;;;4157147;28;20087;-58
2022/04/09 06:21:18;;;;;;;21.63;11.60;;;10.40;99.90;;;;;;4156985;28;20041;-62
2022/04/09 06:23:19;;;;;;;19.70;12.10;;;10.40;99.90;;;;;;4157697;28;20025;-63
2022/04/09 06:25:20;;;;;;;22.00;10.30;;;10.40;99.90;;;;;;4157869;28;20041;-57
2022/04/09 06:27:21;;;;;;;16.03;10.67;;;10.40;99.90;;;;;;4156458;28;20045;-57
2022/04/09 06:29:22;;;;;;;16.83;10.10;;;10.40;99.90;;;;;;4157576;28;20033;-57
2022/04/09 06:31:24;;;;;;;26.30;11.73;;;10.40;99.90;;;;;;4156392;28;20041;-57
2022/04/09 06:33:25;;;;;;;21.83;12.10;;;10.50;99.90;;;;;;4157964;28;20087;-59
2022/04/09 06:35:27;;;;;;;24.23;12.37;;;10.50;99.90;;;;;;4156038;28;20034;-59
2022/04/09 06:37:28;;;;;;;23.20;11.23;;;10.50;99.90;;;;;;4172404;28;20099;-60
2022/04/09 06:39:29;;;;;;;25.83;14.13;;;10.60;99.90;;;;;;4156390;28;20037;-60
2022/04/09 06:41:30;;;;;;;28.47;18.10;;;10.60;99.90;;;;;;4157607;28;20029;-58
2022/04/09 06:43:33;;;;;;;19.03;13.70;;;10.60;99.90;;;;;;4155853;28;20075;-57
2022/04/09 06:45:34;;;;;;;21.27;12.97;;;10.60;99.90;;;;;;4158105;28;20033;-61
2022/04/09 06:47:40;;;;;;;23.10;11.47;;;10.50;99.90;;;;;;4156425;28;20163;-59
2022/04/09 06:49:41;;;;;;;23.13;11.20;;;10.50;99.90;;;;;;4157025;28;20087;-58
2022/04/09 06:51:44;;;;;;;22.00;12.50;;;10.50;99.90;;;;;;4139359;28;20041;-58
2022/04/09 06:53:45;;;;;;;29.00;15.57;;;10.50;99.90;;;;;;4140657;28;20041;-58
2022/04/09 06:55:46;;;;;;;30.23;15.77;;;10.40;99.90;;;;;;4141031;28;20038;-61
2022/04/09 06:57:47;;;;;;;30.67;14.07;;;10.40;99.90;;;;;;4139891;28;20893;-60
2022/04/09 06:59:49;;;;;;;26.57;13.43;;;10.40;99.90;;;;;;4138978;28;20085;-62
2022/04/09 07:01:50;;;;;;;20.30;11.30;;;10.40;99.90;;;;;;4140024;28;20092;-60
2022/04/09 07:03:51;;;;;;;21.43;13.13;;;10.30;99.90;;;;;;4138424;28;20041;-60
2022/04/09 07:05:52;;;;;;;18.43;10.13;;;10.40;99.90;;;;;;4139734;28;20025;-57
2022/04/09 07:07:53;;;;;;;18.17;9.93;;;10.40;99.90;;;;;;4141052;28;20532;-55
2022/04/09 07:10:03;;;;;;;23.03;10.50;;;10.50;99.90;;;;;;4139453;28;20104;-60
2022/04/09 07:12:04;;;;;;;20.87;9.77;;;10.50;99.90;;;;;;4140626;28;20099;-60
2022/04/09 07:14:05;;;;;;;15.63;9.23;;;10.60;99.90;;;;;;4139527;28;20045;-58
2022/04/09 07:16:06;;;;;;;15.57;9.83;;;10.70;99.90;;;;;;4140951;28;20049;-58
2022/04/09 07:18:08;;;;;;;21.00;11.40;;;10.70;99.90;;;;;;4139640;28;20038;-60
2022/04/09 07:20:10;;;;;;;18.53;12.10;;;10.70;99.90;;;;;;4139839;28;20096;-61
2022/04/09 07:22:11;;;;;;;24.83;12.03;;;10.70;99.90;;;;;;4139149;28;20084;-59
2022/04/09 07:24:12;;;;;;;26.77;11.43;;;10.70;99.90;;;;;;4139777;28;20490;-60
2022/04/09 07:26:15;;;;;;;22.47;11.73;;;10.70;99.90;;;;;;4140605;28;20034;-58
2022/04/09 07:28:16;;;;;;;27.13;12.30;;;10.70;99.90;;;;;;4138864;28;20445;-59
2022/04/09 07:30:19;;;;;;;25.30;12.23;;;10.70;99.90;;;;;;4139839;28;20133;-60
2022/04/09 07:32:20;;;;;;;20.67;11.00;;;10.80;99.90;;;;;;4139586;28;20132;-54
2022/04/09 07:34:22;;;;;;;19.20;10.67;;;10.70;99.90;;;;;;4140334;28;20042;-59
2022/04/09 07:36:23;;;;;;;16.87;11.33;;;10.80;99.90;;;;;;4139370;28;20030;-60
2022/04/09 07:38:24;;;;;;;21.90;11.77;;;10.80;99.90;;;;;;4138912;28;20038;-61
2022/04/09 07:40:29;;;;;;;22.37;11.97;;;10.80;99.90;;;;;;4139543;28;20033;-57
2022/04/09 07:42:30;;;;;;;22.13;12.53;;;10.80;99.90;;;;;;4140675;28;20088;-62
2022/04/09 07:44:31;;;;;;;23.47;14.73;;;10.70;99.90;;;;;;4139364;28;20030;-64
2022/04/09 07:46:32;;;;;;;20.30;13.37;;;10.70;99.90;;;;;;4140506;28;20099;-58
2022/04/09 07:48:35;;;;;;;25.50;14.60;;;10.70;99.90;;;;;;4139156;28;20145;-56
2022/04/09 07:50:36;;;;;;;22.13;13.77;;;10.60;99.90;;;;;;4140566;28;20080;-55
2022/04/09 07:52:39;;;;;;;24.67;13.90;;;10.60;99.90;;;;;;4138867;28;20108;-60
2022/04/09 07:54:40;;;;;;;26.20;14.57;;;10.60;99.90;;;;;;4140896;28;20704;-58
2022/04/09 07:56:41;;;;;;;25.73;13.70;;;10.60;99.90;;;;;;4142602;28;20183;-63
2022/04/09 07:58:43;;;;;;;20.33;13.07;;;10.60;99.90;;;;;;4143366;28;20108;-60
2022/04/09 08:00:45;;;;;;;22.67;13.77;;;10.60;99.90;;;;;;4142816;28;20030;-58
2022/04/09 08:02:47;;;;;;;24.97;13.93;;;10.60;99.90;;;;;;4141080;28;20484;-56
2022/04/09 08:04:48;;;;;;;23.97;12.97;;;10.60;99.90;;;;;;4143307;28;20432;-57
2022/04/09 08:06:49;;;;;;;21.23;13.13;;;10.60;99.90;;;;;;4142153;28;20041;-56
2022/04/09 08:08:50;;;;;;;26.10;12.87;;;10.70;99.90;;;;;;4143701;28;20030;-55
2022/04/09 08:10:51;;;;;;;17.23;11.40;;;10.70;99.90;;;;;;4141633;28;20151;-57
2022/04/09 08:12:53;;;;;;;22.57;12.97;;;10.80;99.90;;;;;;4143861;28;20076;-58
2022/04/09 08:14:55;;;;;;;21.77;11.33;;;10.80;99.90;;;;;;4141781;28;20049;-58
2022/04/09 08:16:56;;;;;;;21.47;12.50;;;10.90;99.90;;;;;;4142743;28;20030;-55
2022/04/09 08:18:57;;;;;;;24.40;11.97;;;10.90;99.90;;;;;;4141899;28;20096;-60
2022/04/09 08:20:58;;;;;;;18.50;11.90;;;10.90;99.90;;;;;;4142454;28;20415;-65
2022/04/09 08:23:00;;;;;;;26.63;11.50;;;11.00;99.90;;;;;;4141945;28;20110;-60
2022/04/09 08:25:02;;;;;;;17.60;11.77;;;10.90;99.90;;;;;;4142902;28;20050;-59
2022/04/09 08:27:03;;;;;;;17.60;11.47;;;10.90;99.90;;;;;;4140934;28;20033;-59
2022/04/09 08:29:05;;;;;;;26.37;12.80;;;11.00;99.90;;;;;;4143031;28;20045;-59
2022/04/09 08:31:07;;;;;;;16.70;11.03;;;11.00;99.90;;;;;;4142629;28;20022;-60
2022/04/09 08:33:10;;;;;;;19.63;12.03;;;11.00;99.90;;;;;;4142252;28;20060;-61
2022/04/09 08:35:12;;;;;;;20.77;11.70;;;11.00;99.90;;;;;;4142407;28;20034;-58
2022/04/09 08:37:13;;;;;;;20.37;12.20;;;11.00;99.90;;;;;;4142050;28;20030;-56
2022/04/09 08:39:14;;;;;;;18.80;11.63;;;11.00;99.90;;;;;;4143136;28;20103;-58
2022/04/09 08:41:15;;;;;;;29.23;17.43;;;11.00;99.90;;;;;;4141188;28;20096;-57
2022/04/09 08:43:16;;;;;;;29.73;16.87;;;11.00;99.90;;;;;;4142525;28;20042;-62
2022/04/09 08:45:18;;;;;;;26.77;17.07;;;11.00;99.90;;;;;;4141641;28;20037;-58
2022/04/09 08:47:19;;;;;;;26.07;15.53;;;11.00;99.90;;;;;;4142317;28;20065;-60
2022/04/09 08:49:22;;;;;;;24.23;14.90;;;11.00;99.90;;;;;;4141660;28;20022;-61
2022/04/09 08:51:23;;;;;;;17.27;12.90;;;11.00;99.90;;;;;;4142993;28;20050;-60
2022/04/09 08:53:24;;;;;;;22.27;13.80;;;11.10;99.90;;;;;;4141358;28;20065;-63
2022/04/09 08:55:25;;;;;;;19.87;12.37;;;11.00;99.90;;;;;;4142991;28;20386;-60
2022/04/09 08:57:27;;;;;;;25.27;14.90;;;11.00;99.90;;;;;;4141857;28;20038;-66
2022/04/09 08:59:28;;;;;;;26.17;16.07;;;11.10;99.90;;;;;;4142282;28;20021;-60
2022/04/09 09:01:31;;;;;;;30.20;16.53;;;11.00;99.90;;;;;;4142066;28;20034;-55
2022/04/09 09:03:35;;;;;;;28.03;15.63;;;11.10;99.90;;;;;;4141272;28;20049;-59
2022/04/09 09:05:46;;;;;;;23.70;14.73;;;11.10;99.90;;;;;;4141076;28;20038;-59
2022/04/09 09:07:47;;;;;;;;;;;11.20;99.90;;;;;;4141727;28;20084;-59
2022/04/09 09:09:50;;;;;;;22.43;12.83;;;11.20;99.90;;;;;;4141849;28;20330;-63
2022/04/09 09:11:51;;;;;;;26.83;14.90;;;11.20;99.90;;;;;;4141202;28;20466;-62
2022/04/09 09:13:55;;;;;;;25.53;13.17;;;11.20;99.90;;;;;;4142435;28;20061;-57
2022/04/09 09:15:56;;;;;;;22.77;13.43;;;11.20;99.90;;;;;;4141111;28;20079;-59
2022/04/09 09:17:58;;;;;;;29.97;13.57;;;11.20;99.90;;;;;;4141942;28;20045;-58
2022/04/09 09:20:00;;;;;;;21.37;11.87;;;11.20;99.90;;;;;;4141333;28;20049;-60
2022/04/09 09:22:05;;;;;;;20.70;14.33;;;11.20;99.90;;;;;;4141612;28;20046;-58
2022/04/09 09:24:06;;;;;;;24.20;15.87;;;11.20;99.90;;;;;;4141318;28;20165;-60
2022/04/09 09:26:08;;;;;;;26.20;16.83;;;11.20;99.90;;;;;;4142547;28;20096;-57
2022/04/09 09:28:12;;;;;;;27.47;20.20;;;11.20;99.90;;;;;;4141255;28;20825;-56
2022/04/09 09:30:14;;;;;;;36.33;23.70;;;11.20;99.90;;;;;;4142775;28;20087;-58
2022/04/09 09:32:28;;;;;;;35.60;24.90;;;11.20;99.90;;;;;;4140685;28;20721;-58
2022/04/09 09:34:30;;;;;;;40.43;26.00;;;11.10;99.90;;;;;;4142118;28;20187;-58
2022/04/09 09:36:32;;;;;;;37.43;27.70;;;11.10;99.90;;;;;;4140534;28;20042;-57
2022/04/09 09:38:34;;;;;;;46.77;29.80;;;11.20;99.90;;;;;;4141769;28;20030;-57
2022/04/09 09:40:36;;;;;;;40.37;28.27;;;11.20;99.90;;;;;;4141294;28;20065;-58
2022/04/09 09:42:37;;;;;;;35.33;26.90;;;11.10;99.90;;;;;;4141935;28;20026;-60
2022/04/09 09:44:44;;;;;;;37.90;26.30;;;11.10;99.90;;;;;;4140885;28;20076;-60
2022/04/09 09:46:49;;;;;;;36.63;25.90;;;11.20;99.90;;;;;;4141514;28;20065;-59
2022/04/09 09:48:50;;;;;;;33.90;22.30;;;11.20;99.90;;;;;;4140623;28;20049;-62
2022/04/09 09:50:53;;;;;;;31.87;19.87;;;11.10;99.90;;;;;;4140570;28;20030;-58
2022/04/09 09:53:04;;;;;;;26.43;17.20;;;11.10;99.90;;;;;;4141484;28;20065;-61
2022/04/09 09:55:15;;;;;;;29.03;17.07;;;11.10;99.90;;;;;;4140527;28;20112;-58
2022/04/09 09:57:21;;;;;;;26.53;17.77;;;11.00;99.90;;;;;;4141769;28;20447;-60
2022/04/09 09:59:23;;;;;;;29.10;18.50;;;11.00;99.90;;;;;;4140330;28;20092;-57
2022/04/09 10:01:25;;;;;;;30.57;17.93;;;10.90;99.90;;;;;;4142129;28;20022;-58
2022/04/09 10:03:27;;;;;;;33.70;18.77;;;10.90;99.90;;;;;;4139867;28;20077;-63
2022/04/09 10:05:28;;;;;;;33.27;18.77;;;10.90;99.90;;;;;;4141582;28;20038;-57
2022/04/09 10:07:29;;;;;;;30.27;18.17;;;10.80;99.90;;;;;;4138618;28;20107;-55
2022/04/09 10:09:30;;;;;;;28.77;17.83;;;10.80;99.90;;;;;;4141486;28;20076;-60
2022/04/09 10:11:36;;;;;;;39.47;18.23;;;10.80;99.90;;;;;;4140313;28;20025;-61
2022/04/09 10:13:43;;;;;;;20.77;14.13;;;10.80;99.90;;;;;;4141322;28;20053;-57
2022/04/09 10:15:47;;;;;;;23.37;14.60;;;10.80;99.90;;;;;;4140176;28;20818;-58
2022/04/09 10:17:49;;;;;;;21.77;13.63;;;10.80;99.90;;;;;;4140872;28;20030;-59
2022/04/09 10:19:58;;;;;;;20.23;13.90;;;10.80;99.90;;;;;;4139996;28;20038;-55
2022/04/09 10:22:00;;;;;;;20.83;13.77;;;10.80;99.90;;;;;;4139655;28;20046;-58